Time;durP1;ratioP1;P1;durP2;ratioP2;P2;SDS_P1;SDS_P2;PMS_P1;PMS_P2;Temp;Humidity;BMP_temperature;BMP_pressure;BME280_temperature;BME280_humidity;BME280_pressure;Samples;Min_cycle;Max_cycle;Signal;HPM_P1;HPM_P2
2023/07/29 00:02:37;;;;;;;3.60;2.57;;;;;;;18.62;74.85;97272.41;6162477;28;20634;-90
2023/07/29 00:05:41;;;;;;;3.40;2.60;;;;;;;19.69;72.93;97393.38;6161564;28;20240;-90
2023/07/29 00:08:43;;;;;;;3.70;2.43;;;;;;;19.64;70.86;97342.94;6160713;28;20229;-90
2023/07/29 00:11:45;;;;;;;9.90;8.13;;;;;;;19.79;68.78;97314.75;6140308;28;20242;-90
2023/07/29 00:14:47;;;;;;;2.83;2.10;;;;;;;20.14;68.12;97350.06;6160162;28;20238;-90
2023/07/29 00:17:50;;;;;;;2.17;1.97;;;;;;;20.32;67.89;97359.84;6160777;28;20248;-89
2023/07/29 00:20:52;;;;;;;2.00;1.80;;;;;;;20.44;67.94;97364.66;6145533;28;20234;-90
2023/07/29 00:23:57;;;;;;;2.63;1.83;;;;;;;20.51;66.75;97354.22;6153903;28;20230;-90
2023/07/29 00:27:02;;;;;;;2.90;2.10;;;;;;;20.74;66.33;97358.41;6170105;28;20222;-89
2023/07/29 00:30:05;;;;;;;2.87;2.30;;;;;;;20.55;66.84;97339.72;6155840;28;20729;-90
2023/07/29 00:33:08;;;;;;;5.00;2.40;;;;;;;20.47;66.89;97351.31;6162144;28;20222;-90
2023/07/29 00:36:12;;;;;;;4.23;2.20;;;;;;;20.16;68.27;97320.81;6158754;28;20198;-90
2023/07/29 00:39:15;;;;;;;1.93;1.73;;;;;;;20.24;68.97;97364.09;6178991;28;20263;-90
2023/07/29 00:42:17;;;;;;;2.10;1.70;;;;;;;20.12;70.10;97350.38;6157698;28;20245;-91
2023/07/29 00:45:19;;;;;;;3.43;1.80;;;;;;;19.37;70.68;97262.84;6140955;28;20679;-87
2023/07/29 00:48:22;;;;;;;2.47;1.80;;;;;;;19.08;71.43;97247.06;6144161;28;20235;-87
2023/07/29 00:51:24;;;;;;;2.43;2.00;;;;;;;19.42;72.89;97351.84;6136505;28;20333;-87
2023/07/29 00:54:27;;;;;;;3.70;1.70;;;;;;;18.99;74.25;97329.91;6156416;28;20706;-88
2023/07/29 00:57:30;;;;;;;2.07;1.87;;;;;;;18.55;75.31;97293.59;6165624;28;20907;-88
2023/07/29 01:00:32;;;;;;;2.80;2.00;;;;;;;18.09;76.47;97224.44;6152342;28;20230;-87
2023/07/29 01:03:37;;;;;;;2.30;2.10;;;;;;;18.59;76.99;97305.38;6177988;28;20227;-89
2023/07/29 01:07:13;;;;;;;2.30;2.10;;;;;;;18.72;77.14;97347.75;6172308;28;20229;-88
2023/07/29 01:10:22;;;;;;;1.77;1.63;;;;;;;18.58;77.66;97352.34;6152402;28;20221;-88
2023/07/29 01:13:43;;;;;;;3.57;2.30;;;;;;;18.48;78.23;97356.06;6171676;28;20237;-88
2023/07/29 01:17:00;;;;;;;3.50;2.43;;;;;;;18.17;79.12;97328.88;6154180;28;20236;-89
2023/07/29 01:20:13;;;;;;;2.17;1.97;;;;;;;18.02;78.79;97304.91;6157189;28;20300;-89
2023/07/29 01:23:16;;;;;;;3.73;2.23;;;;;;;18.19;80.20;97347.47;6156346;28;20226;-89
2023/07/29 01:26:18;;;;;;;2.20;2.00;;;;;;;18.08;80.43;97335.25;6170907;28;20221;-88
2023/07/29 01:29:24;;;;;;;2.53;2.23;;;;;;;18.06;80.79;97340.94;6155589;28;20237;-88
2023/07/29 01:32:38;;;;;;;2.13;1.93;;;;;;;17.30;80.42;97227.28;6153205;28;20222;-89
2023/07/29 01:36:15;;;;;;;2.97;2.37;;;;;;;18.07;81.40;97355.22;6152160;28;20226;-87
2023/07/29 01:39:22;;;;;;;3.13;2.93;;;;;;;17.57;81.83;97291.16;6128780;28;20238;-88
2023/07/29 01:42:26;;;;;;;2.50;2.30;;;;;;;17.37;82.24;97254.59;6159481;28;20704;-89
2023/07/29 01:45:35;;;;;;;3.07;2.70;;;;;;;17.73;82.34;97326.72;6148900;28;20715;-89
2023/07/29 01:48:38;;;;;;;2.57;2.37;;;;;;;17.64;82.79;97304.25;6161893;28;20221;-89
2023/07/29 01:51:40;;;;;;;3.03;2.20;;;;;;;17.13;82.98;97224.31;6138533;28;20229;-89
2023/07/29 01:54:42;;;;;;;2.83;2.20;;;;;;;17.63;83.43;97302.63;6142701;28;21027;-89
2023/07/29 01:57:44;;;;;;;2.10;1.93;;;;;;;17.65;83.34;97312.03;6143639;28;20597;-88
2023/07/29 02:00:47;;;;;;;3.30;2.20;;;;;;;17.37;83.49;97269.97;6159662;28;20226;-89
2023/07/29 02:03:54;;;;;;;1.97;1.63;;;;;;;17.36;84.26;97279.13;6148848;28;20665;-89
2023/07/29 02:06:57;;;;;;;2.07;1.90;;;;;;;17.13;84.25;97248.53;6144094;28;20225;-88
2023/07/29 02:10:00;;;;;;;2.33;2.13;;;;;;;17.84;84.51;97359.69;6142826;28;20229;-88
2023/07/29 02:13:03;;;;;;;2.30;2.10;;;;;;;17.21;84.64;97262.13;6144991;28;20225;-89
2023/07/29 02:16:05;;;;;;;2.63;2.37;;;;;;;17.53;85.26;97309.78;6161326;28;20222;-89
2023/07/29 02:19:07;;;;;;;2.20;2.00;;;;;;;17.78;85.58;97367.88;6144880;28;20225;-88
2023/07/29 02:22:15;;;;;;;2.43;2.23;;;;;;;17.70;85.53;97338.06;6172372;28;20828;-89
2023/07/29 02:25:17;;;;;;;2.50;2.30;;;;;;;17.67;86.17;97341.34;6155652;28;20225;-88
2023/07/29 02:28:20;;;;;;;2.60;2.40;;;;;;;17.73;84.01;97342.88;6161590;28;20229;-89
2023/07/29 02:31:24;;;;;;;2.47;2.23;;;;;;;18.14;80.56;97372.63;6149973;28;20251;-89
2023/07/29 02:34:27;;;;;;;1.70;1.60;;;;;;;18.66;71.52;97348.91;6161308;28;20229;-88
2023/07/29 02:37:30;;;;;;;1.60;1.50;;;;;;;18.86;66.43;97325.31;6158408;28;20298;-88
2023/07/29 02:40:32;;;;;;;1.87;1.67;;;;;;;19.05;66.74;97304.38;6159296;28;20694;-88
2023/07/29 02:43:36;;;;;;;1.30;1.20;;;;;;;18.80;65.71;97257.97;6159166;28;20241;-89
2023/07/29 02:46:38;;;;;;;2.40;1.53;;;;;;;19.13;67.02;97316.34;6156662;28;20234;-88
2023/07/29 02:49:41;;;;;;;1.83;1.67;;;;;;;18.95;68.43;97297.31;6157418;28;20230;-88
2023/07/29 02:52:43;;;;;;;1.93;1.60;;;;;;;19.14;67.75;97326.84;6160316;28;20236;-88
2023/07/29 02:55:46;;;;;;;2.23;1.70;;;;;;;19.14;67.77;97315.25;6173405;28;20261;-90
2023/07/29 02:58:48;;;;;;;1.70;1.60;;;;;;;18.64;68.08;97237.03;6149077;28;20367;-90
2023/07/29 03:01:50;;;;;;;2.63;1.73;;;;;;;18.72;69.04;97256.03;6147241;28;21033;-90
2023/07/29 03:04:53;;;;;;;1.93;1.30;;;;;;;19.12;69.71;97334.47;6149328;28;20330;-90
2023/07/29 03:07:55;;;;;;;2.17;1.57;;;;;;;19.26;70.10;97359.53;6161852;28;20228;-90
2023/07/29 03:10:58;;;;;;;1.70;1.60;;;;;;;18.87;70.61;97311.56;6145221;28;20711;-90
2023/07/29 03:14:00;;;;;;;1.93;1.53;;;;;;;18.95;71.33;97328.91;6159253;28;20233;-90
2023/07/29 03:17:05;;;;;;;1.30;1.20;;;;;;;18.46;72.30;97266.53;6176176;28;20226;-90
2023/07/29 03:20:08;;;;;;;2.03;1.67;;;;;;;18.60;72.80;97309.66;6144350;28;20360;-90
2023/07/29 03:23:10;;;;;;;2.40;1.70;;;;;;;18.85;73.73;97367.72;6155669;28;20573;-90
2023/07/29 03:26:12;;;;;;;1.73;1.50;;;;;;;18.48;74.15;97336.38;6178031;28;20312;-90
2023/07/29 03:29:15;;;;;;;2.03;1.27;;;;;;;18.38;74.43;97333.88;6140397;28;20229;-90
2023/07/29 03:32:17;;;;;;;3.20;1.70;;;;;;;18.78;72.87;97370.84;6174135;28;20236;-90
2023/07/29 03:35:19;;;;;;;2.60;1.43;;;;;;;18.05;70.09;97234.22;6146767;28;20228;-91
2023/07/29 03:38:21;;;;;;;2.40;1.63;;;;;;;18.71;69.43;97335.34;6139218;28;20247;-90
2023/07/29 03:41:24;;;;;;;2.50;1.63;;;;;;;18.44;69.19;97300.31;6150721;28;20228;-91
2023/07/29 03:44:26;;;;;;;2.10;1.83;;;;;;;18.86;69.69;97373.91;6178212;28;20448;-91
2023/07/29 03:47:28;;;;;;;1.70;1.50;;;;;;;18.86;67.58;97369.31;6163547;28;20253;-89
2023/07/29 03:50:35;;;;;;;2.27;1.50;;;;;;;18.78;67.88;97368.13;6162843;28;20229;-90
2023/07/29 03:53:37;;;;;;;1.47;1.33;;;;;;;18.75;67.92;97340.94;6142862;28;20228;-91
2023/07/29 03:56:39;;;;;;;2.40;1.90;;;;;;;18.49;68.65;97306.38;6141007;28;20221;-90
2023/07/29 03:59:42;;;;;;;1.60;1.50;;;;;;;18.69;69.91;97359.16;6155987;28;20233;-90
2023/07/29 04:02:45;;;;;;;1.87;1.53;;;;;;;18.28;71.27;97314.09;6141665;28;20363;-90
2023/07/29 04:05:48;;;;;;;2.00;1.70;;;;;;;18.69;72.10;97391.53;6157781;28;20370;-90
2023/07/29 04:08:50;;;;;;;1.73;1.60;;;;;;;18.46;72.59;97374.41;6167251;28;20236;-90
2023/07/29 04:11:53;;;;;;;2.10;1.70;;;;;;;17.93;72.26;97310.22;6152466;28;20238;-90
2023/07/29 04:14:55;;;;;;;1.63;1.40;;;;;;;17.97;72.26;97323.88;6173145;28;20213;-90
2023/07/29 04:17:57;;;;;;;1.87;1.60;;;;;;;17.91;72.39;97333.94;6193749;28;20209;-89
2023/07/29 04:20:59;;;;;;;1.50;1.40;;;;;;;17.74;72.62;97301.41;6188115;28;20273;-89
2023/07/29 04:24:02;;;;;;;2.10;1.50;;;;;;;18.26;73.66;97393.69;6183164;28;20233;-90
2023/07/29 04:27:04;;;;;;;1.33;1.23;;;;;;;18.16;74.06;97389.28;6178836;28;20209;-89
2023/07/29 04:30:07;;;;;;;1.50;1.40;;;;;;;18.25;73.87;97409.06;6195271;28;20205;-90
2023/07/29 04:33:09;;;;;;;1.93;1.60;;;;;;;18.18;74.13;97392.50;6193981;28;20189;-89
2023/07/29 04:36:12;;;;;;;1.90;1.40;;;;;;;17.84;74.46;97354.31;6189382;28;20463;-89
2023/07/29 04:39:18;;;;;;;2.20;1.90;;;;;;;18.34;72.85;97408.38;6202385;28;20202;-88
2023/07/29 04:42:20;;;;;;;1.90;1.70;;;;;;;18.39;72.05;97390.22;6185616;28;20225;-89
2023/07/29 04:45:30;;;;;;;3.53;1.77;;;;;;;18.73;72.50;97424.13;6194963;28;20221;-90
2023/07/29 04:48:32;;;;;;;1.63;1.47;;;;;;;18.39;72.80;97386.72;6187084;28;20218;-90
2023/07/29 04:51:35;;;;;;;1.57;1.47;;;;;;;18.48;73.54;97410.00;6186520;28;20214;-90
2023/07/29 04:54:37;;;;;;;2.97;1.80;;;;;;;17.95;74.51;97339.53;6185644;28;20240;-90
2023/07/29 04:57:39;;;;;;;1.57;1.43;;;;;;;18.44;74.96;97408.19;6168488;28;20232;-87
2023/07/29 05:00:41;;;;;;;1.87;1.53;;;;;;;18.25;74.99;97398.28;6172918;28;20233;-86
2023/07/29 05:03:44;;;;;;;1.60;1.33;;;;;;;18.43;75.97;97414.69;6154595;28;20231;-88
2023/07/29 05:06:47;;;;;;;1.63;1.53;;;;;;;18.66;75.81;97451.44;6172287;28;20293;-89
2023/07/29 05:09:49;;;;;;;1.77;1.47;;;;;;;18.37;76.58;97399.69;6186125;28;20217;-88
2023/07/29 05:12:51;;;;;;;1.60;1.37;;;;;;;18.49;76.76;97416.97;6204870;28;20229;-89
2023/07/29 05:15:54;;;;;;;1.40;1.30;;;;;;;18.42;77.96;97419.28;6203724;28;20240;-89
2023/07/29 05:18:56;;;;;;;1.70;1.50;;;;;;;18.31;78.47;97398.97;6187544;28;20300;-89
2023/07/29 05:22:00;;;;;;;2.07;1.30;;;;;;;18.07;78.60;97357.91;6203316;28;20213;-88
2023/07/29 05:25:03;;;;;;;1.60;1.50;;;;;;;18.70;79.64;97449.00;6179042;28;20320;-91
2023/07/29 05:28:05;;;;;;;2.07;1.63;;;;;;;18.36;79.84;97401.59;6180039;28;20224;-90
2023/07/29 05:31:08;;;;;;;3.47;1.73;;;;;;;18.16;79.76;97353.44;6143694;28;20221;-88
2023/07/29 05:34:10;;;;;;;1.43;1.30;;;;;;;18.84;73.19;97422.81;6145319;28;20225;-87
2023/07/29 05:37:16;;;;;;;1.63;1.53;;;;;;;19.17;70.91;97428.06;6162767;28;20244;-88
2023/07/29 05:40:19;;;;;;;1.67;1.40;;;;;;;19.36;69.96;97427.88;6143356;28;20851;-88
2023/07/29 05:43:21;;;;;;;2.73;1.67;;;;;;;19.15;68.04;97354.66;6163049;28;20241;-91
2023/07/29 05:46:24;;;;;;;2.03;1.70;;;;;;;19.61;68.11;97410.34;6152415;28;20261;-91
2023/07/29 05:49:26;;;;;;;1.83;1.63;;;;;;;19.87;68.50;97434.84;6156377;28;20233;-92
2023/07/29 05:52:34;;;;;;;2.63;1.50;;;;;;;19.50;69.26;97397.03;6155594;28;20290;-90
2023/07/29 05:55:36;;;;;;;1.67;1.40;;;;;;;18.86;67.40;97272.13;6160825;28;20320;-89
2023/07/29 05:58:39;;;;;;;2.27;1.23;;;;;;;19.80;67.41;97403.66;6156511;28;20256;-90
2023/07/29 06:01:42;;;;;;;1.30;1.20;;;;;;;19.22;69.20;97341.53;6165720;28;20237;-89
2023/07/29 06:04:48;;;;;;;2.37;1.40;;;;;;;19.34;67.01;97361.47;6161083;28;20675;-89
2023/07/29 06:07:50;;;;;;;1.63;1.20;;;;;;;19.98;66.87;97419.97;6139234;28;20330;-87
2023/07/29 06:10:53;;;;;;;1.97;1.67;;;;;;;20.14;67.68;97440.09;6153670;28;20253;-88
2023/07/29 06:14:01;;;;;;;2.40;2.20;;;;;;;19.60;69.20;97374.41;6158812;28;20244;-88
2023/07/29 06:17:06;;;;;;;1.87;1.50;;;;;;;19.15;66.11;97281.72;6144700;28;20761;-91
2023/07/29 06:20:10;;;;;;;1.43;1.20;;;;;;;19.38;67.03;97329.25;6147791;28;20252;-90
2023/07/29 06:23:16;;;;;;;1.53;1.40;;;;;;;19.44;68.11;97340.72;6170586;28;20241;-88
2023/07/29 06:26:19;;;;;;;1.90;1.70;;;;;;;19.92;64.39;97356.31;6151891;28;20229;-90
2023/07/29 06:29:22;;;;;;;1.50;1.40;;;;;;;20.00;64.50;97356.38;6145342;28;20230;-92
2023/07/29 06:32:25;;;;;;;1.60;1.30;;;;;;;20.03;65.10;97352.22;6146357;28;20252;-89
2023/07/29 06:35:27;;;;;;;1.67;1.40;;;;;;;20.09;67.27;97383.44;6157535;28;20313;-92
2023/07/29 06:38:31;;;;;;;1.60;1.40;;;;;;;20.42;67.84;97424.50;6164257;28;20233;-91
2023/07/29 06:41:36;;;;;;;1.37;1.27;;;;;;;19.33;68.92;97248.34;6148747;28;20214;-95
2023/07/29 06:44:40;;;;;;;1.67;1.17;;;;;;;19.66;69.80;97307.53;6174326;28;20233;-89
2023/07/29 06:47:49;;;;;;;2.03;1.50;;;;;;;19.62;68.83;97309.25;6181978;28;20229;-92
2023/07/29 06:50:54;;;;;;;1.30;1.20;;;;;;;19.47;67.21;97265.28;6152959;28;20225;-91
2023/07/29 06:54:26;;;;;;;4.60;1.50;;;;;;;20.60;68.51;97428.91;6139272;28;20240;-94
2023/07/29 06:57:30;;;;;;;1.73;1.40;;;;;;;19.84;67.75;97317.31;6124903;28;20233;-91
2023/07/29 07:00:32;;;;;;;2.37;1.40;;;;;;;20.00;67.77;97350.13;6141172;28;20341;-93
2023/07/29 07:03:35;;;;;;;1.83;1.40;;;;;;;20.30;65.74;97387.22;6162993;28;20694;-92
2023/07/29 07:06:41;;;;;;;1.17;1.13;;;;;;;20.76;64.63;97428.47;6150275;28;20275;-94
2023/07/29 07:09:44;;;;;;;1.63;1.40;;;;;;;20.14;63.07;97314.88;6157649;28;20239;-93
2023/07/29 07:13:33;;;;;;;1.90;1.47;;;;;;;19.81;62.58;97261.19;6154079;28;20207;-94
2023/07/29 07:17:19;;;;;;;1.37;1.27;;;;;;;21.09;63.45;97421.56;6163717;23;20247;-37
2023/07/29 07:20:22;;;;;;;1.20;1.10;;;;;;;21.08;64.73;97419.97;6146167;28;21002;-46
2023/07/29 07:23:25;;;;;;;1.63;1.37;;;;;;;21.01;67.05;97416.91;6151368;28;20233;-44
2023/07/29 07:26:29;;;;;;;1.50;1.30;;;;;;;20.97;68.05;97415.94;6149800;28;20237;-40
2023/07/29 07:29:32;;;;;;;2.10;1.50;;;;;;;20.51;66.57;97352.28;6155118;23;20232;-85
2023/07/29 07:32:35;;;;;;;1.63;1.53;;;;;;;20.61;67.38;97367.44;6155461;28;20223;-86
2023/07/29 07:35:42;;;;;;;1.93;1.43;;;;;;;20.76;68.88;97393.28;6145236;28;20325;-89
2023/07/29 07:38:44;;;;;;;3.03;1.30;;;;;;;20.87;69.82;97410.81;6158059;28;20243;-90
2023/07/29 07:41:46;;;;;;;1.87;1.47;;;;;;;20.33;70.30;97328.97;6157248;28;20245;-90
2023/07/29 07:44:49;;;;;;;1.43;1.20;;;;;;;20.53;70.34;97352.75;6145518;28;20246;-90
2023/07/29 07:47:53;;;;;;;1.30;1.20;;;;;;;21.00;69.63;97417.22;6155547;28;20222;-89
2023/07/29 07:50:55;;;;;;;1.87;1.50;;;;;;;20.92;64.51;97388.22;6145699;28;20583;-89
2023/07/29 07:54:00;;;;;;;1.67;1.53;;;;;;;20.65;68.56;97327.03;6163485;28;20349;-86
2023/07/29 07:57:02;;;;;;;1.10;1.00;;;;;;;21.14;63.58;97374.56;6138346;28;20249;-92
2023/07/29 08:00:05;;;;;;;2.07;0.97;;;;;;;20.61;63.51;97270.81;6159422;28;20210;-92
2023/07/29 08:03:13;;;;;;;1.20;1.10;;;;;;;21.76;60.77;97414.09;6126845;28;20302;-91
2023/07/29 08:06:16;;;;;;;1.17;1.07;;;;;;;22.14;60.97;97406.88;6157384;28;20233;-91
2023/07/29 08:09:18;;;;;;;1.30;1.10;;;;;;;21.53;59.44;97272.53;6145710;28;20688;-90
2023/07/29 08:12:21;;;;;;;1.23;1.13;;;;;;;22.23;59.97;97349.88;6161628;28;20229;-92
2023/07/29 08:15:23;;;;;;;0.83;0.80;;;;;;;21.85;60.30;97296.34;6158338;28;20737;-90
2023/07/29 08:18:26;;;;;;;3.17;1.30;;;;;;;21.65;59.28;97248.25;6156399;28;20230;-90
2023/07/29 08:21:29;;;;;;;1.13;1.03;;;;;;;22.67;56.07;97394.69;6155135;28;20226;-90
2023/07/29 08:24:32;;;;;;;0.93;0.93;;;;;;;22.45;57.89;97342.56;6149725;28;20678;-89
2023/07/29 08:27:35;;;;;;;0.88;0.88;;;;;;;22.83;56.36;97361.53;6139048;28;20234;-90
2023/07/29 08:30:41;;;;;;;1.53;1.10;;;;;;;23.29;53.82;97389.69;6178124;28;20233;-90
2023/07/29 08:33:43;;;;;;;1.10;1.00;;;;;;;23.10;53.87;97344.75;6171745;28;20242;-89
2023/07/29 08:36:46;;;;;;;2.88;1.20;;;;;;;23.56;56.60;97393.81;6142844;28;20229;-89
2023/07/29 08:39:49;;;;;;;1.25;1.15;;;;;;;23.78;52.91;97392.66;6161367;28;20230;-88
2023/07/29 08:42:52;;;;;;;1.20;1.10;;;;;;;23.24;55.00;97321.94;6159550;28;20253;-88
2023/07/29 08:45:55;;;;;;;2.50;1.13;;;;;;;23.50;55.23;97365.22;6151518;28;20779;-89
2023/07/29 08:49:01;;;;;;;1.05;1.00;;;;;;;23.88;51.32;97375.91;6156451;28;20581;-87
2023/07/29 08:52:04;;;;;;;1.15;1.05;;;;;;;23.70;52.93;97322.84;6159918;28;20612;-89
2023/07/29 08:55:07;;;;;;;2.35;1.25;;;;;;;23.86;55.12;97353.69;6159209;28;20245;-88
2023/07/29 08:58:11;;;;;;;1.20;0.98;;;;;;;24.09;56.98;97378.59;6166380;28;20230;-86
2023/07/29 09:01:14;;;;;;;1.05;0.95;;;;;;;23.72;56.67;97321.34;6161844;28;20238;-87
2023/07/29 09:04:17;;;;;;;1.25;1.05;;;;;;;24.26;51.75;97345.72;6170024;28;20337;-89
2023/07/29 09:07:21;;;;;;;1.25;1.10;;;;;;;24.10;53.30;97328.47;6147294;28;20672;-88
2023/07/29 09:10:26;;;;;;;1.88;1.00;;;;;;;24.45;53.34;97372.41;6188426;28;20222;-89
2023/07/29 09:13:28;;;;;;;2.33;1.10;;;;;;;24.03;51.01;97303.72;6174563;28;20245;-90
2023/07/29 09:16:32;;;;;;;1.20;1.10;;;;;;;24.13;54.14;97312.22;6202372;28;20233;-90
2023/07/29 09:19:36;;;;;;;1.45;1.30;;;;;;;23.69;55.07;97237.69;6164844;28;20222;-94
2023/07/29 09:22:38;;;;;;;1.00;0.90;;;;;;;24.25;54.90;97310.66;6206107;28;20277;-89
2023/07/29 09:25:42;;;;;;;1.08;0.98;;;;;;;24.32;56.55;97311.69;6145861;28;20270;-89
2023/07/29 09:28:57;;;;;;;1.80;1.10;;;;;;;24.79;53.87;97354.03;6144951;28;20246;-91
2023/07/29 09:32:22;;;;;;;1.30;1.15;;;;;;;24.86;51.65;97333.22;6145148;28;20597;-88
2023/07/29 09:35:28;;;;;;;1.10;1.00;;;;;;;25.09;49.91;97343.66;6150450;28;20231;-86
2023/07/29 09:38:30;;;;;;;1.73;1.23;;;;;;;24.99;48.32;97273.25;6157392;28;20317;-90
2023/07/29 09:41:33;;;;;;;1.20;1.10;;;;;;;25.11;48.55;97293.09;6136440;28;20231;-87
2023/07/29 09:44:38;;;;;;;1.60;1.20;;;;;;;25.30;49.47;97321.66;6137256;28;20671;-89
2023/07/29 09:47:41;;;;;;;2.90;1.00;;;;;;;25.56;50.91;97332.91;6158492;23;20253;-41
2023/07/29 09:50:47;;;;;;;1.20;1.10;;;;;;;25.24;47.98;97291.13;6187971;28;20248;-44
2023/07/29 09:53:52;;;;;;;1.40;1.10;;;;;;;25.65;47.85;97339.00;6191248;28;20248;-44
2023/07/29 09:56:55;;;;;;;2.65;1.08;;;;;;;25.64;47.93;97334.69;6195115;28;20271;-44
2023/07/29 09:59:58;;;;;;;1.25;0.98;;;;;;;25.61;50.29;97329.94;6189172;28;20232;-46
2023/07/29 10:03:01;;;;;;;1.08;0.90;;;;;;;25.70;51.61;97335.22;6190382;28;20290;-44
2023/07/29 10:06:05;;;;;;;1.15;1.00;;;;;;;25.87;49.65;97329.50;6179554;28;20219;-40
2023/07/29 10:09:08;;;;;;;0.90;0.90;;;;;;;25.86;45.04;97322.47;6197168;28;20670;-38
2023/07/29 10:12:11;;;;;;;2.30;1.15;;;;;;;25.71;45.12;97304.06;6200155;28;20216;-38
2023/07/29 10:15:16;;;;;;;1.27;0.98;;;;;;;26.03;44.26;97324.03;6200022;28;20236;-41
2023/07/29 10:18:19;;;;;;;1.10;1.00;;;;;;;26.18;45.47;97323.25;6191402;28;20220;-39
2023/07/29 10:21:23;;;;;;;1.15;1.05;;;;;;;26.10;45.17;97331.63;6203130;28;20232;-39
2023/07/29 10:24:32;;;;;;;1.30;1.05;;;;;;;25.85;49.68;97326.31;6197171;28;20318;-40
2023/07/29 10:27:43;;;;;;;1.27;0.90;;;;;;;25.93;46.75;97330.03;6194709;28;20309;-40
2023/07/29 10:30:46;;;;;;;0.82;0.82;;;;;;;26.24;42.59;97324.56;6178728;28;20758;-42
2023/07/29 10:33:50;;;;;;;1.50;1.27;;;;;;;26.31;46.47;97328.66;6195708;28;20217;-39
2023/07/29 10:36:53;;;;;;;1.20;1.10;;;;;;;26.35;45.87;97321.31;6177736;28;20241;-41
2023/07/29 10:39:56;;;;;;;1.13;0.95;;;;;;;26.44;43.25;97316.47;6201566;28;20244;-39
2023/07/29 10:43:10;;;;;;;1.10;1.00;;;;;;;26.47;42.47;97318.50;6195894;28;20233;-40
2023/07/29 10:46:17;;;;;;;1.60;1.35;;;;;;;26.43;42.16;97298.50;6198056;28;20228;-39
2023/07/29 10:49:23;;;;;;;7.07;6.38;;;;;;;26.51;43.43;97322.13;6195493;28;20244;-41
2023/07/29 10:52:34;;;;;;;2.55;2.35;;;;;;;26.42;44.87;97316.84;6194175;28;20437;-39
2023/07/29 10:55:37;;;;;;;3.45;1.38;;;;;;;26.35;47.01;97308.44;6202659;28;20603;-40
2023/07/29 10:58:42;;;;;;;3.17;1.13;;;;;;;26.12;46.77;97319.22;6197161;28;20225;-47
2023/07/29 11:01:58;;;;;;;1.02;0.93;;;;;;;26.13;47.67;97307.13;6195745;28;20239;-41
2023/07/29 11:05:06;;;;;;;1.50;1.08;;;;;;;26.19;48.56;97294.00;6190259;28;20335;-40
2023/07/29 11:08:22;;;;;;;1.02;1.00;;;;;;;26.24;49.86;97294.53;6194379;28;20267;-45
2023/07/29 11:11:25;;;;;;;2.60;2.40;;;;;;;26.34;49.39;97292.41;6199446;28;20585;-42
2023/07/29 11:14:31;;;;;;;3.80;3.13;;;;;;;26.49;48.19;97288.88;6180832;28;20228;-40
2023/07/29 11:17:36;;;;;;;2.03;1.83;;;;;;;26.89;39.02;97274.94;6147161;28;20315;-42
2023/07/29 11:20:38;;;;;;;2.33;0.90;;;;;;;27.00;38.89;97281.44;6194161;28;20225;-45
2023/07/29 11:23:41;;;;;;;1.10;1.00;;;;;;;26.95;40.63;97279.00;6198042;28;20626;-43
2023/07/29 11:26:46;;;;;;;1.10;1.00;;;;;;;27.00;40.47;97275.97;6193126;28;20712;-43
2023/07/29 11:29:49;;;;;;;0.82;0.82;;;;;;;26.95;42.64;97261.81;6194663;28;20233;-44
2023/07/29 11:32:53;;;;;;;1.10;1.00;;;;;;;27.12;42.58;97279.75;6196033;28;20236;-44
2023/07/29 11:35:56;;;;;;;1.77;1.58;;;;;;;27.05;42.68;97265.91;6184920;28;20228;-47
2023/07/29 11:39:00;;;;;;;1.70;1.20;;;;;;;26.91;45.63;97261.72;6181498;28;20231;-43
2023/07/29 11:42:02;;;;;;;2.45;1.92;;;;;;;26.92;45.49;97274.22;6186787;28;20252;-43
2023/07/29 11:45:09;;;;;;;1.80;1.17;;;;;;;26.86;43.96;97277.63;6190036;28;20244;-45
2023/07/29 11:48:12;;;;;;;0.95;0.95;;;;;;;26.80;41.70;97276.28;6199579;28;20252;-46
2023/07/29 11:51:15;;;;;;;2.75;1.75;;;;;;;26.76;42.61;97257.09;6176978;28;20208;-44
2023/07/29 11:54:21;;;;;;;2.08;1.67;;;;;;;26.89;43.75;97274.94;6193012;28;20282;-46
2023/07/29 11:57:24;;;;;;;1.40;1.30;;;;;;;26.87;44.61;97258.13;6192372;28;20233;-44
2023/07/29 12:00:26;;;;;;;6.95;4.97;;;;;;;26.86;44.99;97242.09;6167700;28;20235;-45
2023/07/29 12:03:29;;;;;;;5.32;4.57;;;;;;;26.83;46.75;97259.19;6189165;28;20267;-46
2023/07/29 12:06:32;;;;;;;4.30;3.15;;;;;;;26.52;48.01;97252.69;6193759;28;20220;-45
2023/07/29 12:09:37;;;;;;;2.47;1.95;;;;;;;26.36;49.69;97249.97;6193777;28;20359;-45
2023/07/29 12:12:47;;;;;;;2.63;2.42;;;;;;;26.08;52.09;97263.72;6189075;28;20224;-48
2023/07/29 12:15:49;;;;;;;2.53;2.33;;;;;;;25.82;53.34;97268.94;6187572;28;20322;-49
2023/07/29 12:18:55;;;;;;;1.67;1.58;;;;;;;25.76;50.63;97253.94;6194975;28;20236;-48
2023/07/29 12:21:57;;;;;;;2.10;1.20;;;;;;;25.75;50.06;97264.06;6186917;28;20319;-48
2023/07/29 12:25:01;;;;;;;2.65;1.70;;;;;;;25.87;51.16;97274.13;6195645;28;20252;-46
2023/07/29 12:28:06;;;;;;;1.30;1.20;;;;;;;25.50;46.33;97246.25;6186640;28;20236;-48
2023/07/29 12:31:09;;;;;;;2.25;1.60;;;;;;;25.68;47.26;97272.06;6187669;28;20229;-48
2023/07/29 12:34:21;;;;;;;1.70;1.60;;;;;;;25.96;49.55;97280.19;6199093;28;20239;-46
2023/07/29 12:37:32;;;;;;;1.85;1.55;;;;;;;26.46;46.68;97259.56;6193430;28;20318;-50
2023/07/29 12:40:39;;;;;;;4.05;1.70;;;;;;;27.21;41.54;97286.56;6198717;28;20239;-49
2023/07/29 12:43:42;;;;;;;2.22;1.80;;;;;;;27.29;42.19;97286.69;6193192;28;20237;-50
2023/07/29 12:46:44;;;;;;;2.58;1.80;;;;;;;27.26;41.51;97288.22;6198588;28;20240;-47
2023/07/29 12:49:46;;;;;;;2.78;2.00;;;;;;;27.02;43.08;97278.34;6195513;28;20244;-48
2023/07/29 12:52:49;;;;;;;2.35;2.00;;;;;;;26.87;43.25;97279.19;6193621;28;20232;-49
2023/07/29 12:55:51;;;;;;;1.45;1.35;;;;;;;26.70;43.72;97294.06;6191976;28;20256;-49
2023/07/29 12:58:53;;;;;;;1.75;1.65;;;;;;;26.56;43.77;97293.75;6189583;28;20716;-49
2023/07/29 13:01:56;;;;;;;3.65;1.50;;;;;;;26.41;44.37;97287.91;6194836;28;20232;-48
2023/07/29 13:04:58;;;;;;;1.90;1.80;;;;;;;26.41;42.14;97279.72;6194994;28;20326;-49
2023/07/29 13:08:00;;;;;;;2.47;1.50;;;;;;;26.30;42.68;97275.94;6190989;28;20236;-46
2023/07/29 13:11:04;;;;;;;3.13;1.50;;;;;;;26.09;46.44;97280.91;6196315;28;20885;-45
2023/07/29 13:14:06;;;;;;;1.60;1.50;;;;;;;25.88;45.16;97275.72;6186241;28;20221;-46
2023/07/29 13:17:08;;;;;;;3.22;1.10;;;;;;;25.94;43.09;97275.09;6197454;28;20366;-47
2023/07/29 13:20:11;;;;;;;2.55;1.20;;;;;;;25.84;43.73;97267.41;6206925;28;20323;-47
2023/07/29 13:23:13;;;;;;;1.40;1.30;;;;;;;25.91;44.53;97270.34;6210500;28;20248;-48
2023/07/29 13:26:15;;;;;;;1.73;1.17;;;;;;;25.79;42.14;97245.84;6193568;28;20282;-47
2023/07/29 13:29:18;;;;;;;1.67;1.33;;;;;;;25.83;44.96;97263.13;6197052;28;20243;-46
2023/07/29 13:32:20;;;;;;;1.20;1.10;;;;;;;25.79;44.04;97259.50;6195603;28;20239;-47
2023/07/29 13:35:22;;;;;;;1.65;1.38;;;;;;;25.89;44.29;97255.44;6195011;28;20272;-49
2023/07/29 13:38:28;;;;;;;1.90;1.20;;;;;;;26.03;46.46;97255.81;6187995;28;20699;-45
2023/07/29 13:41:30;;;;;;;4.50;1.40;;;;;;;26.13;43.43;97243.56;6179200;28;20674;-46
2023/07/29 13:44:33;;;;;;;1.90;1.33;;;;;;;26.10;44.67;97236.84;6175968;28;20691;-47
2023/07/29 13:47:35;;;;;;;1.50;1.40;;;;;;;26.29;45.68;97247.03;6190401;28;20244;-50
2023/07/29 13:50:37;;;;;;;1.40;1.30;;;;;;;26.40;45.02;97245.38;6211678;28;20240;-48
2023/07/29 13:53:41;;;;;;;1.63;1.35;;;;;;;26.35;45.47;97245.63;6207997;28;20306;-46
2023/07/29 13:56:44;;;;;;;2.03;1.40;;;;;;;26.16;46.84;97229.22;6202955;28;20232;-47
2023/07/29 13:59:47;;;;;;;2.00;1.38;;;;;;;26.28;44.82;97250.94;6164398;28;20229;-49
2023/07/29 14:02:49;;;;;;;4.20;1.77;;;;;;;26.26;44.99;97266.09;6200032;28;20604;-49
2023/07/29 14:05:51;;;;;;;2.28;1.40;;;;;;;26.15;44.64;97243.97;6197246;28;20240;-49
2023/07/29 14:08:54;;;;;;;1.65;1.52;;;;;;;26.10;44.44;97257.91;6199085;28;20236;-50
2023/07/29 14:11:56;;;;;;;2.30;1.48;;;;;;;26.12;44.00;97248.22;6198687;28;20697;-48
2023/07/29 14:14:59;;;;;;;1.42;1.33;;;;;;;26.17;44.49;97241.72;6198169;28;20260;-48
2023/07/29 14:18:02;;;;;;;3.20;1.60;;;;;;;26.23;44.67;97235.59;6188635;28;20229;-49
2023/07/29 14:21:05;;;;;;;1.10;0.98;;;;;;;26.25;45.86;97240.72;6200301;28;20213;-48
2023/07/29 14:24:07;;;;;;;1.92;1.52;;;;;;;26.19;46.38;97236.66;6191914;28;20225;-47
2023/07/29 14:27:09;;;;;;;1.65;1.50;;;;;;;26.24;44.52;97239.91;6196059;28;20299;-45
2023/07/29 14:30:12;;;;;;;2.22;1.80;;;;;;;26.30;44.72;97240.44;6196792;28;20213;-47